Pagrindinis puslapis
METAR-TAF:

METAR-TAF

Oro uostai :

Hobbs, Naujoji Meksika, Jungtinės Amerikos Valstijos

platuma: 32-41N, ilguma: 103-13W, Aukštis: 1115 m

Dabartinis oras

Ataskaita buvo paskelbta 1 valandą ir 3 minutes, ne 15:50 UTC
Vėjas 4 kt iš Pietų
Temperatūra 23°C
Drėgmė 57%
Slėgis 1023 hPa
Matomumas: 16.1 km
Giedras dangus

METAR: KHOB 031550Z 17004KT 10SM SKC 23/14 A3022

Laikas: 10:53 (16:53 UTC)

Prognozė

Ataskaita buvo paskelbta 2 valandos ir 58 minutes, ne 13:55 UTC
Prognozė galioja nuo 03 metu 14 UTC su 04 metu 12 UTC
Vėjas 6 kt iš Rytų/Šiaurės Rytų
Matomumas: 10 km
Giedras dangus
Laikinai
nuo 03 metu 14 UTC su 03 metu 16 UTC
Matomumas: 6.4 km
migla

TAF: KHOB 031355Z 0314/0412 07006KT P6SM SKC TEMPO 0314/0316 4SM HZ

Orai ataskaitas ir orų prognozės (METAR, TAF).

turimą stotys yra geltonos ir raudonos taškus žemėlapyje.

Perkelti pele per norėdami pamatyti stoties vardą.

Tada spustelėkite, norėdami matyti oro stebėjimo ir prognozės.

Norėdami pakeisti žemėlapį: spustelėkite ant žalios mygtukų su juodo kryžiaus žemyn,; žalią mygtuką su brūkšneliu, jei norite nutolinti; arba žalių rodyklių gretimoms žemėlapius.


METAR-TAF: